createdAt,value
2023-04-16T00:00:26.792Z,4.05
2023-04-16T00:02:53.886Z,4.00
2023-04-16T00:05:21.039Z,4.60
2023-04-16T00:07:47.894Z,4.15
2023-04-16T00:10:14.800Z,3.90
2023-04-16T00:12:41.670Z,4.38
2023-04-16T00:15:11.940Z,4.32
2023-04-16T00:17:38.739Z,4.20
2023-04-16T00:20:06.636Z,4.07
2023-04-16T00:22:33.374Z,4.18
2023-04-16T00:25:00.369Z,4.20
2023-04-16T00:27:27.125Z,4.03
2023-04-16T00:29:53.879Z,4.47
2023-04-16T00:32:20.697Z,4.20
2023-04-16T00:34:47.562Z,3.67
2023-04-16T00:37:14.344Z,4.38
2023-04-16T00:39:44.302Z,3.90
2023-04-16T00:42:11.353Z,5.00
2023-04-16T00:44:38.068Z,3.78
2023-04-16T00:47:07.716Z,4.70
2023-04-16T00:49:36.038Z,4.45
2023-04-16T00:52:03.475Z,4.20
2023-04-16T00:54:31.337Z,4.43
2023-04-16T00:56:59.748Z,4.18
2023-04-16T00:59:27.561Z,3.97
2023-04-16T01:01:54.360Z,4.47
2023-04-16T01:04:21.552Z,4.57
2023-04-16T01:06:48.507Z,4.25
2023-04-16T01:09:15.325Z,4.18
2023-04-16T01:11:42.290Z,4.25
2023-04-16T01:14:09.026Z,4.43
2023-04-16T01:16:35.894Z,4.47
2023-04-16T01:19:02.894Z,4.07
2023-04-16T01:21:29.725Z,4.88
2023-04-16T01:23:56.505Z,3.80
2023-04-16T01:26:23.253Z,4.43
2023-04-16T01:28:49.936Z,4.60
2023-04-16T01:31:16.707Z,3.83
2023-04-16T01:33:43.476Z,4.15
2023-04-16T01:36:10.178Z,4.40
2023-04-16T01:38:37.141Z,4.70
2023-04-16T01:41:04.042Z,4.40
2023-04-16T01:43:30.849Z,4.30
2023-04-16T01:46:18.410Z,4.13
2023-04-16T01:48:45.676Z,4.38
2023-04-16T01:51:12.620Z,4.00
2023-04-16T01:53:39.552Z,4.00
2023-04-16T01:56:06.818Z,4.10
2023-04-16T01:58:34.202Z,4.10
2023-04-16T02:01:01.120Z,4.15
2023-04-16T02:03:28.301Z,4.72
2023-04-16T02:05:55.316Z,4.30
2023-04-16T02:08:22.122Z,4.38
2023-04-16T02:10:50.620Z,4.82
2023-04-16T02:13:17.403Z,4.35
2023-04-16T02:15:48.170Z,4.07
2023-04-16T02:18:15.610Z,4.50
2023-04-16T02:20:46.548Z,5.00
2023-04-16T02:23:15.125Z,4.55
2023-04-16T02:25:43.509Z,4.00
2023-04-16T02:28:11.520Z,4.20
2023-04-16T02:30:39.712Z,3.95
2023-04-16T02:33:08.230Z,3.92
2023-04-16T02:35:35.352Z,4.25
2023-04-16T02:38:02.740Z,4.15
2023-04-16T02:40:30.072Z,4.55
2023-04-16T02:42:57.201Z,4.20
2023-04-16T02:45:24.907Z,3.83
2023-04-16T02:47:53.031Z,4.65
2023-04-16T02:50:20.270Z,4.13
2023-04-16T02:52:47.405Z,4.13
2023-04-16T02:55:14.662Z,9.50
2023-04-16T02:57:42.664Z,9.55
2023-04-16T03:00:10.291Z,5.10
2023-04-16T03:02:37.194Z,7.25
2023-04-16T03:05:04.498Z,5.32
2023-04-16T03:07:31.629Z,5.03
2023-04-16T03:09:58.525Z,4.65
2023-04-16T03:12:25.354Z,4.30
2023-04-16T03:14:54.810Z,3.85
2023-04-16T03:17:21.657Z,4.18
2023-04-16T03:19:51.088Z,4.30
2023-04-16T03:22:17.895Z,3.80
2023-04-16T03:24:44.780Z,3.75
2023-04-16T03:27:14.426Z,4.18
2023-04-16T03:29:41.565Z,3.80
2023-04-16T03:32:08.409Z,3.53
2023-04-16T03:34:36.846Z,4.05
2023-04-16T03:37:05.611Z,3.65
2023-04-16T03:39:34.613Z,3.80
2023-04-16T03:42:02.415Z,3.60
2023-04-16T03:44:29.923Z,4.03
2023-04-16T03:46:56.846Z,4.18
2023-04-16T03:49:23.893Z,3.65
2023-04-16T03:51:51.297Z,3.83
2023-04-16T03:54:19.272Z,3.38
2023-04-16T03:56:52.103Z,3.53
2023-04-16T03:59:22.496Z,3.72
2023-04-16T04:01:53.469Z,4.35
2023-04-16T04:04:20.529Z,3.55
2023-04-16T04:06:47.427Z,3.50
2023-04-16T04:09:16.495Z,3.85
2023-04-16T04:11:43.446Z,3.58
2023-04-16T04:14:10.727Z,3.33
2023-04-16T04:16:37.646Z,3.90
2023-04-16T04:19:04.986Z,4.15
2023-04-16T04:21:32.072Z,3.80
2023-04-16T04:23:58.908Z,4.28
2023-04-16T04:26:25.732Z,3.60
2023-04-16T04:28:52.582Z,3.70
2023-04-16T04:31:19.419Z,3.53
2023-04-16T04:33:49.921Z,3.50
2023-04-16T04:36:20.138Z,3.55
2023-04-16T04:38:47.340Z,3.97
2023-04-16T04:41:17.291Z,3.72
2023-04-16T04:43:44.007Z,3.78
2023-04-16T04:46:11.184Z,3.78
2023-04-16T04:48:38.098Z,3.80
2023-04-16T04:51:05.692Z,3.65
2023-04-16T04:53:32.493Z,3.90
2023-04-16T04:56:09.211Z,3.70
2023-04-16T04:58:42.715Z,3.58
2023-04-16T05:01:09.753Z,3.55
2023-04-16T05:03:36.704Z,3.35
2023-04-16T05:06:03.748Z,3.83
2023-04-16T05:08:30.927Z,3.38
2023-04-16T05:10:57.734Z,3.35
2023-04-16T05:13:24.626Z,3.25
2023-04-16T05:15:51.413Z,3.30
2023-04-16T05:18:18.096Z,3.67
2023-04-16T05:20:48.284Z,3.28
2023-04-16T05:23:15.776Z,3.35
2023-04-16T05:25:42.468Z,3.20
2023-04-16T05:28:10.360Z,3.17
2023-04-16T05:30:37.687Z,3.50
2023-04-16T05:33:04.476Z,3.28
2023-04-16T05:35:31.438Z,3.58
2023-04-16T05:37:58.133Z,3.63
2023-04-16T05:40:24.841Z,3.78
2023-04-16T05:42:51.758Z,3.35
2023-04-16T05:45:18.442Z,3.13
2023-04-16T05:47:45.300Z,3.47
2023-04-16T05:50:12.022Z,3.78
2023-04-16T05:52:38.918Z,3.22
2023-04-16T05:55:06.431Z,3.38
2023-04-16T05:57:33.652Z,3.50
2023-04-16T06:00:00.394Z,3.72
2023-04-16T06:02:27.278Z,3.30
2023-04-16T06:04:54.167Z,2.95
2023-04-16T06:07:20.991Z,3.47
2023-04-16T06:09:47.882Z,4.03
2023-04-16T06:12:14.651Z,3.50
2023-04-16T06:14:41.355Z,3.40
2023-04-16T06:17:08.234Z,3.40
2023-04-16T06:19:35.052Z,3.50
2023-04-16T06:22:02.139Z,3.70
2023-04-16T06:24:29.108Z,4.10
2023-04-16T06:26:55.824Z,3.60
2023-04-16T06:29:25.901Z,3.80
2023-04-16T06:32:00.735Z,3.55
2023-04-16T06:34:28.547Z,3.47
2023-04-16T06:36:55.515Z,3.55
2023-04-16T06:39:22.526Z,3.90
2023-04-16T06:41:49.471Z,3.65
2023-04-16T06:44:16.244Z,3.67
2023-04-16T06:46:43.051Z,3.42
2023-04-16T06:49:10.051Z,3.40
2023-04-16T06:51:37.048Z,3.63
2023-04-16T06:54:03.829Z,3.95
2023-04-16T06:56:30.604Z,3.72
2023-04-16T06:58:59.032Z,3.25
2023-04-16T07:01:25.916Z,3.58
2023-04-16T07:03:53.110Z,3.88
2023-04-16T07:06:20.062Z,3.50
2023-04-16T07:08:46.736Z,3.72
2023-04-16T07:11:13.508Z,3.63
2023-04-16T07:13:40.330Z,3.70
2023-04-16T07:16:07.415Z,4.32
2023-04-16T07:18:34.272Z,3.80
2023-04-16T07:21:01.136Z,3.45
2023-04-16T07:23:28.144Z,3.80
2023-04-16T07:25:54.899Z,3.90
2023-04-16T07:28:21.729Z,3.92
2023-04-16T07:30:49.050Z,4.05
2023-04-16T07:33:15.822Z,3.97
2023-04-16T07:35:42.541Z,4.15
2023-04-16T07:38:09.228Z,4.03
2023-04-16T07:40:36.970Z,4.07
2023-04-16T07:43:03.859Z,3.80
2023-04-16T07:45:30.648Z,3.70
2023-04-16T07:47:57.360Z,3.58
2023-04-16T07:50:24.604Z,3.70
2023-04-16T07:52:51.290Z,3.70
2023-04-16T07:55:18.180Z,3.90
2023-04-16T07:57:44.828Z,4.00
2023-04-16T08:00:12.105Z,3.88
2023-04-16T08:02:38.951Z,4.13
2023-04-16T08:05:06.458Z,3.78
2023-04-16T08:07:34.471Z,3.45
2023-04-16T08:10:02.234Z,3.67
2023-04-16T08:12:29.969Z,4.03
2023-04-16T08:14:56.852Z,3.63
2023-04-16T08:17:23.691Z,2.97
2023-04-16T08:19:50.746Z,3.55
2023-04-16T08:22:17.790Z,3.97
2023-04-16T08:24:44.528Z,4.25
2023-04-16T08:27:19.357Z,4.18
2023-04-16T08:29:47.229Z,3.97
2023-04-16T08:32:13.996Z,3.72
2023-04-16T08:34:41.750Z,3.85
2023-04-16T08:37:08.613Z,3.80
2023-04-16T08:39:35.552Z,3.65
2023-04-16T08:42:05.419Z,4.40
2023-04-16T08:44:34.890Z,3.53
2023-04-16T08:47:02.427Z,3.78
2023-04-16T08:49:29.950Z,3.95
2023-04-16T08:51:57.178Z,3.83
2023-04-16T08:54:56.815Z,3.28
2023-04-16T08:57:26.956Z,3.92
2023-04-16T08:59:54.866Z,3.72
2023-04-16T09:02:21.988Z,3.95
2023-04-16T09:04:49.744Z,3.50
2023-04-16T09:07:18.138Z,4.07
2023-04-16T09:09:46.441Z,3.40
2023-04-16T09:12:13.317Z,3.45
2023-04-16T09:14:41.909Z,3.33
2023-04-16T09:17:09.712Z,4.07
2023-04-16T09:19:36.445Z,3.20
2023-04-16T09:22:03.226Z,3.45
2023-04-16T09:24:30.619Z,3.72
2023-04-16T09:26:57.622Z,3.42
2023-04-16T09:29:36.319Z,3.60
2023-04-16T09:32:08.620Z,3.10
2023-04-16T09:34:53.371Z,3.67
2023-04-16T09:37:20.296Z,3.60
2023-04-16T09:39:57.624Z,3.72
2023-04-16T09:42:29.548Z,3.70
2023-04-16T09:44:59.363Z,3.22
2023-04-16T09:47:40.049Z,3.33
2023-04-16T09:50:09.063Z,3.50
2023-04-16T09:52:38.772Z,3.78
2023-04-16T09:55:06.354Z,3.28
2023-04-16T09:57:33.169Z,3.50
2023-04-16T10:00:05.792Z,3.40
2023-04-16T10:02:34.649Z,3.30
2023-04-16T10:05:03.151Z,3.00
2023-04-16T10:07:35.981Z,3.47
2023-04-16T10:10:04.407Z,3.50
2023-04-16T10:12:32.807Z,3.25
2023-04-16T10:14:59.798Z,3.60
2023-04-16T10:17:30.097Z,3.00
2023-04-16T10:19:58.256Z,3.05
2023-04-16T10:22:26.360Z,3.00
2023-04-16T10:24:53.973Z,3.42
2023-04-16T10:27:21.223Z,3.20
2023-04-16T10:29:48.914Z,3.50
2023-04-16T10:32:17.702Z,3.25
2023-04-16T10:34:45.747Z,3.00
2023-04-16T10:37:12.689Z,3.00
2023-04-16T10:39:39.483Z,3.25
2023-04-16T10:42:11.810Z,3.20
2023-04-16T10:44:42.554Z,3.38
2023-04-16T10:47:15.669Z,3.55
2023-04-16T10:49:43.630Z,3.67
2023-04-16T10:52:13.122Z,2.88
2023-04-16T10:54:41.088Z,3.17
2023-04-16T10:57:10.041Z,2.85
2023-04-16T10:59:39.675Z,2.85
2023-04-16T11:02:15.799Z,3.25
2023-04-16T11:04:45.225Z,2.90
2023-04-16T11:07:15.095Z,2.60
2023-04-16T11:10:02.293Z,3.25
2023-04-16T11:12:38.500Z,3.20
2023-04-16T11:15:07.843Z,3.15
2023-04-16T11:17:40.319Z,3.22
2023-04-16T11:20:19.060Z,3.17
2023-04-16T11:22:51.547Z,4.32
2023-04-16T11:25:34.166Z,3.42
2023-04-16T11:28:02.630Z,3.38
2023-04-16T11:30:37.223Z,2.83
2023-04-16T11:33:13.053Z,2.70
2023-04-16T11:35:41.414Z,2.80
2023-04-16T11:38:08.472Z,3.00
2023-04-16T11:40:36.318Z,2.80
2023-04-16T11:43:14.157Z,3.53
2023-04-16T11:45:57.594Z,3.03
2023-04-16T11:48:25.144Z,2.88
2023-04-16T11:50:59.013Z,2.60
2023-04-16T11:53:25.800Z,2.20
2023-04-16T11:55:52.546Z,2.70
2023-04-16T11:58:20.140Z,2.92
2023-04-16T12:00:49.603Z,2.70
2023-04-16T12:03:16.578Z,4.43
2023-04-16T12:05:43.493Z,2.75
2023-04-16T12:08:12.189Z,2.60
2023-04-16T12:10:54.564Z,2.97
2023-04-16T12:13:21.427Z,2.40
2023-04-16T12:15:53.448Z,2.30
2023-04-16T12:18:26.265Z,2.67
2023-04-16T12:20:53.075Z,2.22
2023-04-16T12:23:30.918Z,2.50
2023-04-16T12:26:02.631Z,2.47
2023-04-16T12:28:35.190Z,2.60
2023-04-16T12:31:03.113Z,2.72
2023-04-16T12:33:30.202Z,2.50
2023-04-16T12:35:57.535Z,2.85
2023-04-16T12:38:25.592Z,2.38
2023-04-16T12:40:52.827Z,2.22
2023-04-16T12:43:22.570Z,2.55
2023-04-16T12:45:49.516Z,2.40
2023-04-16T12:48:16.285Z,5.53
2023-04-16T12:50:44.285Z,2.33
2023-04-16T12:53:12.012Z,2.53
2023-04-16T12:55:38.782Z,2.53
2023-04-16T12:58:05.741Z,2.42
2023-04-16T13:00:32.826Z,2.35
2023-04-16T13:02:59.741Z,2.08
2023-04-16T13:05:27.248Z,2.58
2023-04-16T13:07:54.518Z,1.92
2023-04-16T13:10:22.237Z,3.30
2023-04-16T13:12:49.174Z,2.65
2023-04-16T13:15:16.192Z,2.70
2023-04-16T13:17:43.207Z,2.53
2023-04-16T13:20:10.641Z,2.38
2023-04-16T13:22:37.566Z,2.22
2023-04-16T13:25:05.097Z,3.55
2023-04-16T13:27:32.618Z,2.10
2023-04-16T13:29:59.463Z,2.47
2023-04-16T13:32:26.445Z,2.47
2023-04-16T13:34:53.189Z,2.53
2023-04-16T13:37:20.207Z,2.75
2023-04-16T13:39:47.341Z,2.13
2023-04-16T13:42:14.181Z,3.53
2023-04-16T13:44:41.116Z,2.20
2023-04-16T13:47:08.465Z,2.28
2023-04-16T13:49:36.327Z,3.00
2023-04-16T13:52:03.556Z,2.63
2023-04-16T13:54:30.356Z,2.60
2023-04-16T13:56:57.314Z,2.30
2023-04-16T13:59:24.039Z,2.65
2023-04-16T14:01:51.418Z,4.78
2023-04-16T14:04:18.679Z,2.25
2023-04-16T14:06:45.592Z,2.70
2023-04-16T14:09:12.632Z,2.58
2023-04-16T14:11:39.541Z,2.10
2023-04-16T14:14:06.669Z,2.47
2023-04-16T14:16:34.324Z,2.40
2023-04-16T14:19:01.077Z,2.00
2023-04-16T14:21:27.833Z,2.20
2023-04-16T14:23:54.786Z,1.83
2023-04-16T14:26:21.553Z,2.08
2023-04-16T14:28:48.450Z,2.00
2023-04-16T14:31:17.172Z,1.88
2023-04-16T14:33:44.059Z,2.17
2023-04-16T14:36:10.927Z,2.08
2023-04-16T14:38:37.929Z,2.20
2023-04-16T14:41:04.723Z,3.53
2023-04-16T14:43:31.602Z,1.80
2023-04-16T14:45:59.059Z,2.22
2023-04-16T14:48:26.118Z,2.08
2023-04-16T14:50:54.527Z,2.55
2023-04-16T14:53:22.845Z,2.08
2023-04-16T14:55:49.580Z,2.10
2023-04-16T14:58:16.317Z,2.33
2023-04-16T15:00:43.341Z,2.10
2023-04-16T15:03:10.196Z,2.22
2023-04-16T15:05:37.043Z,1.90
2023-04-16T15:08:05.446Z,2.22
2023-04-16T15:10:32.806Z,2.40
2023-04-16T15:12:59.671Z,2.53
2023-04-16T15:15:26.346Z,2.55
2023-04-16T15:17:53.333Z,2.22
2023-04-16T15:20:20.113Z,2.58
2023-04-16T15:22:46.863Z,2.53
2023-04-16T15:25:14.667Z,2.55
2023-04-16T15:27:41.373Z,2.58
2023-04-16T15:30:08.738Z,2.42
2023-04-16T15:32:35.562Z,4.03
2023-04-16T15:35:03.345Z,2.20
2023-04-16T15:37:30.407Z,2.10
2023-04-16T15:39:57.386Z,2.30
2023-04-16T15:42:24.695Z,2.38
2023-04-16T15:44:51.452Z,2.17
2023-04-16T15:47:18.280Z,2.47
2023-04-16T15:49:45.117Z,2.20
2023-04-16T15:52:12.169Z,1.90
2023-04-16T15:54:40.038Z,2.08
2023-04-16T15:57:06.804Z,1.80
2023-04-16T15:59:33.734Z,2.00
2023-04-16T16:02:01.200Z,1.95
2023-04-16T16:04:28.329Z,1.83
2023-04-16T16:06:56.298Z,2.03
2023-04-16T16:09:26.587Z,1.92
2023-04-16T16:11:58.995Z,2.03
2023-04-16T16:14:26.832Z,2.53
2023-04-16T16:16:53.824Z,2.13
2023-04-16T16:19:21.665Z,2.08
2023-04-16T16:21:48.734Z,2.08
2023-04-16T16:24:15.750Z,2.20
2023-04-16T16:26:42.756Z,2.60
2023-04-16T16:29:11.242Z,2.00
2023-04-16T16:31:38.829Z,2.00
2023-04-16T16:34:05.624Z,2.10
2023-04-16T16:36:38.838Z,2.60
2023-04-16T16:39:06.739Z,1.77
2023-04-16T16:41:37.682Z,1.77
2023-04-16T16:44:04.457Z,1.88
2023-04-16T16:46:31.843Z,2.30
2023-04-16T16:48:58.792Z,7.45
2023-04-16T16:51:26.385Z,1.77
2023-04-16T16:53:54.377Z,2.65
2023-04-16T16:56:21.060Z,1.92
2023-04-16T16:58:47.729Z,2.00
2023-04-16T17:01:14.951Z,1.77
2023-04-16T17:03:41.856Z,1.50
2023-04-16T17:06:08.879Z,1.90
2023-04-16T17:08:35.692Z,1.70
2023-04-16T17:11:05.220Z,1.70
2023-04-16T17:13:32.889Z,1.63
2023-04-16T17:15:59.880Z,2.20
2023-04-16T17:18:27.004Z,1.60
2023-04-16T17:20:53.846Z,1.83
2023-04-16T17:23:20.674Z,1.90
2023-04-16T17:25:47.372Z,1.85
2023-04-16T17:28:14.066Z,2.00
2023-04-16T17:30:40.948Z,1.92
2023-04-16T17:33:07.875Z,2.22
2023-04-16T17:35:34.653Z,1.70
2023-04-16T17:38:01.395Z,1.88
2023-04-16T17:40:28.120Z,2.17
2023-04-16T17:42:54.795Z,2.33
2023-04-16T17:45:21.485Z,1.98
2023-04-16T17:47:48.218Z,1.70
2023-04-16T17:50:15.037Z,1.80
2023-04-16T17:52:43.973Z,1.90
2023-04-16T17:55:11.895Z,1.70
2023-04-16T17:57:39.646Z,2.20
2023-04-16T18:00:11.178Z,2.20
2023-04-16T18:02:41.962Z,2.22
2023-04-16T18:05:09.985Z,1.88
2023-04-16T18:07:37.683Z,2.08
2023-04-16T18:10:05.116Z,3.88
2023-04-16T18:12:33.104Z,2.20
2023-04-16T18:14:59.835Z,2.03
2023-04-16T18:17:26.630Z,3.10
2023-04-16T18:19:53.974Z,2.05
2023-04-16T18:22:20.861Z,2.40
2023-04-16T18:24:48.009Z,1.67
2023-04-16T18:27:15.267Z,2.13
2023-04-16T18:29:44.009Z,2.30
2023-04-16T18:32:12.457Z,1.90
2023-04-16T18:34:39.656Z,1.60
2023-04-16T18:37:06.970Z,2.10
2023-04-16T18:39:34.159Z,1.88
2023-04-16T18:42:01.633Z,2.00
2023-04-16T18:44:28.477Z,1.52
2023-04-16T18:46:55.447Z,2.00
2023-04-16T18:49:22.440Z,1.70
2023-04-16T18:51:49.527Z,1.83
2023-04-16T18:54:16.609Z,1.70
2023-04-16T18:56:43.537Z,2.20
2023-04-16T18:59:10.512Z,2.15
2023-04-16T19:01:37.494Z,2.00
2023-04-16T19:04:04.737Z,1.83
2023-04-16T19:06:32.432Z,2.15
2023-04-16T19:08:59.284Z,2.08
2023-04-16T19:11:26.103Z,2.10
2023-04-16T19:13:52.959Z,1.55
2023-04-16T19:16:19.705Z,1.80
2023-04-16T19:18:46.647Z,1.92
2023-04-16T19:21:13.292Z,1.83
2023-04-16T19:23:40.001Z,2.10
2023-04-16T19:26:06.680Z,2.17
2023-04-16T19:28:33.355Z,2.00
2023-04-16T19:31:00.033Z,1.88
2023-04-16T19:33:26.680Z,2.47
2023-04-16T19:35:53.379Z,1.83
2023-04-16T19:38:20.113Z,1.85
2023-04-16T19:40:48.820Z,1.85
2023-04-16T19:43:15.682Z,1.85
2023-04-16T19:45:43.527Z,1.80
2023-04-16T19:48:10.648Z,1.92
2023-04-16T19:50:41.854Z,1.85
2023-04-16T19:53:08.992Z,1.60
2023-04-16T19:55:36.605Z,1.70
2023-04-16T19:58:06.538Z,2.20
2023-04-16T20:00:35.101Z,1.95
2023-04-16T20:03:02.233Z,1.88
2023-04-16T20:05:29.427Z,1.75
2023-04-16T20:07:56.702Z,1.90
2023-04-16T20:10:23.826Z,1.90
2023-04-16T20:12:50.914Z,2.03
2023-04-16T20:15:18.129Z,1.80
2023-04-16T20:17:45.082Z,2.03
2023-04-16T20:20:12.342Z,2.22
2023-04-16T20:22:39.872Z,1.80
2023-04-16T20:25:07.571Z,1.80
2023-04-16T20:27:34.726Z,1.92
2023-04-16T20:30:02.295Z,1.98
2023-04-16T20:32:29.121Z,2.08
2023-04-16T20:34:56.387Z,2.00
2023-04-16T20:37:23.134Z,2.30
2023-04-16T20:39:54.180Z,2.45
2023-04-16T20:42:22.571Z,2.83
2023-04-16T20:44:50.608Z,1.98
2023-04-16T20:47:17.583Z,2.13
2023-04-16T20:49:47.489Z,2.20
2023-04-16T20:52:15.028Z,2.05
2023-04-16T20:54:42.143Z,2.40
2023-04-16T20:57:08.825Z,2.20
2023-04-16T20:59:37.045Z,2.42
2023-04-16T21:02:04.095Z,2.22
2023-04-16T21:04:31.181Z,2.50
2023-04-16T21:06:58.276Z,1.80
2023-04-16T21:09:25.011Z,2.50
2023-04-16T21:11:51.691Z,2.30
2023-04-16T21:14:18.808Z,1.70
2023-04-16T21:16:45.547Z,2.42
2023-04-16T21:19:12.390Z,2.30
2023-04-16T21:21:39.325Z,2.20
2023-04-16T21:24:06.423Z,1.85
2023-04-16T21:26:33.069Z,2.33
2023-04-16T21:28:59.749Z,2.13
2023-04-16T21:31:26.729Z,2.30
2023-04-16T21:33:53.662Z,2.13
2023-04-16T21:36:20.494Z,2.30
2023-04-16T21:38:47.365Z,2.45
2023-04-16T21:41:14.254Z,3.10
2023-04-16T21:43:41.075Z,2.10
2023-04-16T21:46:07.871Z,2.30
2023-04-16T21:48:34.954Z,2.55
2023-04-16T21:51:06.661Z,2.40
2023-04-16T21:53:34.351Z,2.33
2023-04-16T21:56:01.338Z,2.10
2023-04-16T21:58:28.265Z,2.03
2023-04-16T22:00:55.266Z,2.22
2023-04-16T22:03:31.130Z,2.00
2023-04-16T22:06:01.172Z,2.05
2023-04-16T22:08:29.573Z,2.25
2023-04-16T22:11:00.477Z,2.60
2023-04-16T22:13:30.037Z,2.30
2023-04-16T22:15:57.853Z,2.38
2023-04-16T22:18:25.831Z,2.10
2023-04-16T22:20:56.272Z,2.30
2023-04-16T22:23:26.153Z,2.00
2023-04-16T22:25:54.863Z,2.67
2023-04-16T22:28:22.373Z,2.20
2023-04-16T22:30:49.464Z,2.65
2023-04-16T22:33:16.348Z,2.47
2023-04-16T22:35:43.327Z,2.03
2023-04-16T22:38:10.513Z,2.22
2023-04-16T22:40:37.438Z,2.40
2023-04-16T22:43:05.006Z,2.20
2023-04-16T22:45:31.896Z,2.05
2023-04-16T22:47:59.026Z,2.40
2023-04-16T22:50:26.054Z,2.30
2023-04-16T22:52:52.833Z,2.30
2023-04-16T22:55:19.761Z,2.38
2023-04-16T22:57:47.560Z,2.17
2023-04-16T23:00:18.109Z,2.38
2023-04-16T23:02:45.670Z,2.20
2023-04-16T23:05:12.592Z,1.98
2023-04-16T23:07:39.543Z,2.22
2023-04-16T23:10:08.520Z,1.90
2023-04-16T23:12:37.725Z,2.13
2023-04-16T23:15:06.587Z,2.75
2023-04-16T23:17:34.013Z,2.40
2023-04-16T23:20:00.959Z,2.33
2023-04-16T23:22:27.952Z,2.22
2023-04-16T23:24:54.904Z,2.65
2023-04-16T23:27:21.726Z,2.38
2023-04-16T23:29:48.654Z,2.42
2023-04-16T23:32:15.432Z,2.17
2023-04-16T23:34:42.359Z,2.42
2023-04-16T23:37:09.219Z,2.33
2023-04-16T23:39:36.207Z,2.15
2023-04-16T23:42:03.254Z,2.28
2023-04-16T23:44:30.183Z,2.40
2023-04-16T23:46:57.468Z,2.00
2023-04-16T23:49:24.683Z,2.28
2023-04-16T23:51:51.785Z,2.15
2023-04-16T23:54:18.945Z,2.20
2023-04-16T23:56:45.869Z,2.20
2023-04-16T23:59:13.053Z,2.40
